createdAt,value
2022-09-09T00:03:17.886Z,289.42
2022-09-09T00:06:28.396Z,294.40
2022-09-09T00:09:36.249Z,280.65
2022-09-09T00:12:47.927Z,250.95
2022-09-09T00:16:21.918Z,270.80
2022-09-09T00:19:29.347Z,245.13
2022-09-09T00:22:31.591Z,252.18
2022-09-09T00:25:44.571Z,216.00
2022-09-09T00:29:04.799Z,178.93
2022-09-09T00:32:15.542Z,149.77
2022-09-09T00:35:26.225Z,139.32
2022-09-09T00:38:45.976Z,107.05
2022-09-09T00:42:04.628Z,100.40
2022-09-09T00:45:20.628Z,84.95
2022-09-09T00:48:30.834Z,103.90
2022-09-09T00:51:44.352Z,84.00
2022-09-09T00:54:54.496Z,78.35
2022-09-09T00:57:55.922Z,87.10
2022-09-09T01:01:10.662Z,87.13
2022-09-09T01:04:20.449Z,109.68
2022-09-09T01:07:21.816Z,311.85
2022-09-09T01:10:42.073Z,365.55
2022-09-09T01:13:47.320Z,278.40
2022-09-09T01:16:49.468Z,236.32
2022-09-09T01:20:06.977Z,172.77
2022-09-09T01:23:36.792Z,113.03
2022-09-09T01:26:53.305Z,71.63
2022-09-09T01:30:00.046Z,82.35
2022-09-09T01:33:04.471Z,86.65
2022-09-09T01:36:10.941Z,72.33
2022-09-09T01:39:21.317Z,63.70
2022-09-09T01:42:30.165Z,70.13
2022-09-09T01:45:32.017Z,75.82
2022-09-09T01:48:35.598Z,70.13
2022-09-09T01:51:43.780Z,68.15
2022-09-09T01:54:48.442Z,109.72
2022-09-09T01:58:19.256Z,99.10
2022-09-09T02:01:36.707Z,177.95
2022-09-09T02:04:53.028Z,200.25
2022-09-09T02:08:21.775Z,181.30
2022-09-09T02:11:30.304Z,98.07
2022-09-09T02:14:42.776Z,105.80
2022-09-09T02:17:47.650Z,66.00
2022-09-09T02:20:52.105Z,62.33
2022-09-09T02:23:53.933Z,63.30
2022-09-09T02:26:59.458Z,58.88
2022-09-09T02:30:02.966Z,56.10
2022-09-09T02:33:15.169Z,63.13
2022-09-09T02:36:25.026Z,63.92
2022-09-09T02:39:26.881Z,67.72
2022-09-09T02:42:28.212Z,72.00
2022-09-09T02:48:57.406Z,58.70
2022-09-09T02:52:21.301Z,63.13
2022-09-09T02:56:08.006Z,57.33
2022-09-09T02:59:12.250Z,59.35
2022-09-09T03:02:14.046Z,61.83
2022-09-09T03:05:17.768Z,58.50
2022-09-09T03:08:19.831Z,61.85
2022-09-09T03:11:22.385Z,60.70
2022-09-09T03:14:24.327Z,61.33
2022-09-09T03:17:25.999Z,53.20
2022-09-09T03:20:31.025Z,61.15
2022-09-09T03:23:32.607Z,58.65
2022-09-09T03:26:37.555Z,60.97
2022-09-09T03:29:39.860Z,51.00
2022-09-09T03:32:48.750Z,58.25
2022-09-09T03:35:50.611Z,51.85
2022-09-09T03:38:55.144Z,45.55
2022-09-09T03:44:59.016Z,45.28
2022-09-09T03:48:01.070Z,48.90
2022-09-09T03:51:02.744Z,56.00
2022-09-09T03:54:07.494Z,56.45
2022-09-09T03:57:12.433Z,51.73
2022-09-09T04:00:14.133Z,55.25
2022-09-09T04:03:19.035Z,52.70
2022-09-09T04:06:20.377Z,51.92
2022-09-09T04:09:22.921Z,54.03
2022-09-09T04:12:25.694Z,50.22
2022-09-09T04:15:27.130Z,51.40
2022-09-09T04:18:28.626Z,51.92
2022-09-09T04:21:30.099Z,43.65
2022-09-09T04:24:31.498Z,50.80
2022-09-09T04:27:34.496Z,48.60
2022-09-09T04:30:36.055Z,46.85
2022-09-09T04:33:40.384Z,49.20
2022-09-09T04:36:43.101Z,52.25
2022-09-09T04:39:44.819Z,47.20
2022-09-09T04:42:46.306Z,46.35
2022-09-09T04:45:51.500Z,45.47
2022-09-09T04:48:55.386Z,45.03
2022-09-09T04:52:00.280Z,42.65
2022-09-09T04:55:02.258Z,42.88
2022-09-09T04:58:07.998Z,39.42
2022-09-09T05:01:16.033Z,40.70
2022-09-09T05:04:19.475Z,38.85
2022-09-09T05:07:20.876Z,40.25
2022-09-09T05:10:22.311Z,35.83
2022-09-09T05:13:24.297Z,36.67
2022-09-09T05:16:25.799Z,40.67
2022-09-09T05:19:27.252Z,37.10
2022-09-09T05:22:29.196Z,37.35
2022-09-09T05:25:30.605Z,35.95
2022-09-09T05:28:34.841Z,29.58
2022-09-09T05:31:36.357Z,36.55
2022-09-09T05:34:42.465Z,31.45
2022-09-09T05:37:43.865Z,31.50
2022-09-09T05:40:48.702Z,29.13
2022-09-09T05:43:50.586Z,27.13
2022-09-09T05:46:52.983Z,27.60
2022-09-09T05:49:55.999Z,25.92
2022-09-09T05:52:57.344Z,24.70
2022-09-09T05:56:10.477Z,21.48
2022-09-09T05:59:12.314Z,23.83
2022-09-09T06:02:14.503Z,24.05
2022-09-09T06:05:16.279Z,22.52
2022-09-09T06:08:18.152Z,18.83
2022-09-09T06:11:25.151Z,18.33
2022-09-09T06:14:26.647Z,17.30
2022-09-09T06:17:28.711Z,19.58
2022-09-09T06:20:30.121Z,15.38
2022-09-09T06:23:32.010Z,18.08
2022-09-09T06:26:39.056Z,16.52
2022-09-09T06:29:41.007Z,19.20
2022-09-09T06:32:42.911Z,15.15
2022-09-09T06:35:52.584Z,15.52
2022-09-09T06:38:54.339Z,12.98
2022-09-09T06:41:55.785Z,17.23
2022-09-09T06:45:15.668Z,12.70
2022-09-09T06:48:27.592Z,16.33
2022-09-09T06:51:37.024Z,14.90
2022-09-09T06:54:38.927Z,12.43
2022-09-09T06:57:41.036Z,16.92
2022-09-09T07:00:50.386Z,12.98
2022-09-09T07:03:54.328Z,12.05
2022-09-09T07:06:56.152Z,13.50
2022-09-09T07:09:59.613Z,11.88
2022-09-09T07:13:01.069Z,15.35
2022-09-09T07:16:08.609Z,13.18
2022-09-09T07:19:11.333Z,13.27
2022-09-09T07:22:13.254Z,10.25
2022-09-09T07:25:15.401Z,10.23
2022-09-09T07:28:17.722Z,10.93
2022-09-09T07:31:22.197Z,9.23
2022-09-09T07:34:23.958Z,13.50
2022-09-09T07:37:26.553Z,10.95
2022-09-09T07:40:28.477Z,9.27
2022-09-09T07:43:29.870Z,9.50
2022-09-09T07:46:31.339Z,12.05
2022-09-09T07:49:33.149Z,8.57
2022-09-09T07:52:36.974Z,14.10
2022-09-09T07:55:40.868Z,9.15
2022-09-09T07:58:42.457Z,8.05
2022-09-09T08:01:46.872Z,7.28
2022-09-09T08:04:51.124Z,7.97
2022-09-09T08:07:53.574Z,9.17
2022-09-09T08:11:02.498Z,8.63
2022-09-09T08:14:05.028Z,7.68
2022-09-09T08:17:06.856Z,9.15
2022-09-09T08:20:09.468Z,5.85
2022-09-09T08:23:10.847Z,6.32
2022-09-09T08:26:15.223Z,5.57
2022-09-09T08:29:17.517Z,6.57
2022-09-09T08:32:19.564Z,5.68
2022-09-09T08:35:21.579Z,7.78
2022-09-09T08:38:23.655Z,5.63
2022-09-09T08:42:08.924Z,6.05
2022-09-09T08:45:30.327Z,6.30
2022-09-09T08:49:06.718Z,6.18
2022-09-09T08:52:38.798Z,4.70
2022-09-09T08:59:01.756Z,6.28
2022-09-09T09:02:22.301Z,4.40
2022-09-09T09:05:51.069Z,6.35
2022-09-09T09:08:58.269Z,5.05
2022-09-09T09:12:02.071Z,6.03
2022-09-09T09:15:19.758Z,6.47
2022-09-09T09:18:21.737Z,5.17
2022-09-09T09:21:40.313Z,4.53
2022-09-09T09:25:11.084Z,5.18
2022-09-09T09:28:18.065Z,4.43
2022-09-09T09:31:21.378Z,5.03
2022-09-09T09:34:24.687Z,4.22
2022-09-09T09:37:30.521Z,4.63
2022-09-09T09:40:33.610Z,3.25
2022-09-09T09:43:37.863Z,5.03
2022-09-09T09:46:44.107Z,4.20
2022-09-09T09:49:55.179Z,3.25
2022-09-09T09:53:00.558Z,3.90
2022-09-09T09:56:07.060Z,4.30
2022-09-09T09:59:36.265Z,5.75
2022-09-09T10:02:42.187Z,2.55
2022-09-09T10:05:48.624Z,4.32
2022-09-09T10:08:51.551Z,4.85
2022-09-09T10:12:06.391Z,4.43
2022-09-09T10:15:19.734Z,2.28
2022-09-09T10:18:24.132Z,2.95
2022-09-09T10:22:01.503Z,1.60
2022-09-09T10:25:11.912Z,1.88
2022-09-09T10:28:52.737Z,1.00
2022-09-09T10:32:05.964Z,1.23
2022-09-09T10:38:39.525Z,4.75
2022-09-09T10:42:06.056Z,3.30
2022-09-09T10:45:19.805Z,6.05
2022-09-09T10:48:39.837Z,1.75
2022-09-09T10:51:44.288Z,3.65
2022-09-09T10:54:56.220Z,3.70
2022-09-09T10:58:00.923Z,3.67
2022-09-09T11:01:17.337Z,2.05
2022-09-09T11:04:26.564Z,2.03
2022-09-09T11:07:38.873Z,3.20
2022-09-09T11:11:18.037Z,2.90
2022-09-09T11:14:36.865Z,6.00
2022-09-09T11:17:47.673Z,2.13
2022-09-09T11:20:52.870Z,2.63
2022-09-09T11:24:00.249Z,3.70
2022-09-09T11:27:17.032Z,4.38
2022-09-09T11:34:14.658Z,3.38
2022-09-09T11:37:41.523Z,3.30
2022-09-09T11:40:43.110Z,4.57
2022-09-09T11:43:50.467Z,4.03
2022-09-09T11:46:52.450Z,5.80
2022-09-09T11:49:53.850Z,4.73
2022-09-09T11:53:06.015Z,3.67
2022-09-09T11:56:11.795Z,6.17
2022-09-09T11:59:33.198Z,3.83
2022-09-09T12:02:34.643Z,6.50
2022-09-09T12:05:43.423Z,2.75
2022-09-09T12:08:52.995Z,3.08
2022-09-09T12:12:21.727Z,3.30
2022-09-09T12:15:26.812Z,4.28
2022-09-09T12:18:36.975Z,4.38
2022-09-09T12:21:50.504Z,1.88
2022-09-09T12:25:04.628Z,4.38
2022-09-09T12:28:18.592Z,4.55
2022-09-09T12:31:47.036Z,3.03
2022-09-09T12:34:49.744Z,3.67
2022-09-09T12:37:54.807Z,2.65
2022-09-09T12:40:57.628Z,3.80
2022-09-09T12:47:14.258Z,5.30
2022-09-09T12:50:18.501Z,3.03
2022-09-09T12:53:26.989Z,2.15
2022-09-09T12:56:32.006Z,1.65
2022-09-09T12:59:42.594Z,3.67
2022-09-09T13:02:53.290Z,3.88
2022-09-09T13:05:59.382Z,3.60
2022-09-09T13:09:04.308Z,1.65
2022-09-09T13:12:08.795Z,2.22
2022-09-09T13:15:17.549Z,4.28
2022-09-09T13:18:24.330Z,2.72
2022-09-09T13:21:38.267Z,5.82
2022-09-09T13:24:39.676Z,3.72
2022-09-09T13:27:42.766Z,4.15
2022-09-09T13:30:44.208Z,4.75
2022-09-09T13:33:46.250Z,3.78
2022-09-09T13:36:49.582Z,2.70
2022-09-09T13:39:55.510Z,4.45
2022-09-09T13:42:58.391Z,5.97
2022-09-09T13:46:02.204Z,2.90
2022-09-09T13:49:09.775Z,4.68
2022-09-09T13:52:18.998Z,2.25
2022-09-09T13:55:25.920Z,3.80
2022-09-09T13:58:27.460Z,3.75
2022-09-09T14:01:29.730Z,3.15
2022-09-09T14:04:31.277Z,3.22
2022-09-09T14:07:32.680Z,2.63
2022-09-09T14:10:34.672Z,4.22
2022-09-09T14:13:36.021Z,3.33
2022-09-09T14:16:37.352Z,4.40
2022-09-09T14:19:38.748Z,3.40
2022-09-09T14:22:40.103Z,4.30
2022-09-09T14:25:42.610Z,3.53
2022-09-09T14:28:59.583Z,6.63
2022-09-09T14:32:01.261Z,3.35
2022-09-09T14:35:02.764Z,2.25
2022-09-09T14:38:05.097Z,3.45
2022-09-09T14:41:07.549Z,3.78
2022-09-09T14:44:08.881Z,4.10
2022-09-09T14:47:10.405Z,4.82
2022-09-09T14:50:11.738Z,2.33
2022-09-09T14:53:13.070Z,3.80
2022-09-09T14:56:20.510Z,4.63
2022-09-09T14:59:21.821Z,4.53
2022-09-09T15:02:23.598Z,3.67
2022-09-09T15:05:24.958Z,3.17
2022-09-09T15:08:26.282Z,2.33
2022-09-09T15:11:30.252Z,2.63
2022-09-09T15:14:31.587Z,1.92
2022-09-09T15:17:32.938Z,2.25
2022-09-09T15:20:39.613Z,1.00
2022-09-09T15:23:42.175Z,2.70
2022-09-09T15:26:43.575Z,2.42
2022-09-09T15:29:44.923Z,2.75
2022-09-09T15:32:46.271Z,3.47
2022-09-09T15:35:47.844Z,4.10
2022-09-09T15:38:49.899Z,4.15
2022-09-09T15:41:51.275Z,1.67
2022-09-09T15:44:52.611Z,2.72
2022-09-09T15:47:53.944Z,3.88
2022-09-09T15:51:10.915Z,1.65
2022-09-09T15:54:22.744Z,2.10
2022-09-09T15:57:24.067Z,3.95
2022-09-09T16:00:25.424Z,5.65
2022-09-09T16:03:26.752Z,4.32
2022-09-09T16:06:29.665Z,2.08
2022-09-09T16:09:32.275Z,2.00
2022-09-09T16:12:33.613Z,1.80
2022-09-09T16:15:34.997Z,3.03
2022-09-09T16:18:36.365Z,2.17
2022-09-09T16:21:57.341Z,2.92
2022-09-09T16:24:58.669Z,3.30
2022-09-09T16:27:59.989Z,2.10
2022-09-09T16:31:05.935Z,2.50
2022-09-09T16:34:08.156Z,2.30
2022-09-09T16:37:09.515Z,2.37
2022-09-09T16:40:11.040Z,2.25
2022-09-09T16:43:12.422Z,3.05
2022-09-09T16:46:16.655Z,2.67
2022-09-09T16:49:18.375Z,2.03
2022-09-09T16:52:20.689Z,3.30
2022-09-09T16:55:22.163Z,2.72
2022-09-09T16:58:23.642Z,2.05
2022-09-09T17:01:30.392Z,1.30
2022-09-09T17:04:31.738Z,3.88
2022-09-09T17:07:33.094Z,5.82
2022-09-09T17:10:34.506Z,1.75
2022-09-09T17:13:35.912Z,2.10
2022-09-09T17:16:37.825Z,4.75
2022-09-09T17:19:39.183Z,2.15
2022-09-09T17:22:40.515Z,2.25
2022-09-09T17:25:42.708Z,2.60
2022-09-09T17:28:44.651Z,1.30
2022-09-09T17:31:46.011Z,1.98
2022-09-09T17:34:47.349Z,2.30
2022-09-09T17:37:48.767Z,2.05
2022-09-09T17:40:50.107Z,4.50
2022-09-09T17:43:52.075Z,2.83
2022-09-09T17:46:53.460Z,1.60
2022-09-09T17:49:55.043Z,1.73
2022-09-09T17:52:56.390Z,1.77
2022-09-09T17:56:08.328Z,2.65
2022-09-09T17:59:11.641Z,1.50
2022-09-09T18:02:13.066Z,1.95
2022-09-09T18:05:14.616Z,4.28
2022-09-09T18:08:15.953Z,1.38
2022-09-09T18:11:18.796Z,2.65
2022-09-09T18:14:22.925Z,2.20
2022-09-09T18:17:24.292Z,1.40
2022-09-09T18:20:25.711Z,1.80
2022-09-09T18:23:28.826Z,1.50
2022-09-09T18:29:31.926Z,2.63
2022-09-09T18:32:33.261Z,4.55
2022-09-09T18:35:37.637Z,3.10
2022-09-09T18:38:39.362Z,6.22
2022-09-09T18:41:43.953Z,4.30
2022-09-09T18:44:45.329Z,5.15
2022-09-09T18:47:48.278Z,4.57
2022-09-09T18:50:49.647Z,3.08
2022-09-09T18:53:52.250Z,3.67
2022-09-09T18:56:53.682Z,3.33
2022-09-09T18:59:55.030Z,3.47
2022-09-09T19:02:56.378Z,2.08
2022-09-09T19:06:10.914Z,1.80
2022-09-09T19:09:14.202Z,3.35
2022-09-09T19:12:15.678Z,2.38
2022-09-09T19:15:17.366Z,2.53
2022-09-09T19:18:18.731Z,1.45
2022-09-09T19:21:22.839Z,2.63
2022-09-09T19:24:26.955Z,4.97
2022-09-09T19:27:28.307Z,1.83
2022-09-09T19:30:30.078Z,2.15
2022-09-09T19:33:32.091Z,2.65
2022-09-09T19:36:33.487Z,3.15
2022-09-09T19:39:34.905Z,3.08
2022-09-09T19:42:36.267Z,3.83
2022-09-09T19:45:37.603Z,3.35
2022-09-09T19:48:41.004Z,3.45
2022-09-09T19:51:42.356Z,4.43
2022-09-09T19:54:44.737Z,2.30
2022-09-09T19:57:46.073Z,3.47
2022-09-09T20:00:47.397Z,2.75
2022-09-09T20:03:50.316Z,3.15
2022-09-09T20:06:52.049Z,2.30
2022-09-09T20:09:53.381Z,3.03
2022-09-09T20:12:54.722Z,2.03
2022-09-09T20:16:17.932Z,3.72
2022-09-09T20:19:19.313Z,6.88
2022-09-09T20:22:20.641Z,2.63
2022-09-09T20:25:21.960Z,2.85
2022-09-09T20:28:23.310Z,4.60
2022-09-09T20:31:28.066Z,3.80
2022-09-09T20:34:29.449Z,2.95
2022-09-09T20:37:30.763Z,3.58
2022-09-09T20:40:34.990Z,2.83
2022-09-09T20:43:36.350Z,3.60
2022-09-09T20:46:40.424Z,2.92
2022-09-09T20:49:41.749Z,3.03
2022-09-09T20:52:43.095Z,3.50
2022-09-09T20:55:44.436Z,2.47
2022-09-09T20:58:45.774Z,3.30
2022-09-09T21:01:47.790Z,3.65
2022-09-09T21:04:49.347Z,4.80
2022-09-09T21:07:50.701Z,3.63
2022-09-09T21:10:52.082Z,3.17
2022-09-09T21:13:53.415Z,8.68
2022-09-09T21:16:54.763Z,2.92
2022-09-09T21:19:57.410Z,3.25
2022-09-09T21:22:58.895Z,8.48
2022-09-09T21:26:00.207Z,3.53
2022-09-09T21:29:01.564Z,4.15
2022-09-09T21:32:03.263Z,4.65
2022-09-09T21:35:05.347Z,5.22
2022-09-09T21:38:08.531Z,6.00
2022-09-09T21:44:15.630Z,4.32
2022-09-09T21:47:17.039Z,3.28
2022-09-09T21:50:18.388Z,3.42
2022-09-09T21:53:19.920Z,5.30
2022-09-09T21:56:21.264Z,3.10
2022-09-09T21:59:22.624Z,3.53
2022-09-09T22:02:24.125Z,4.25
2022-09-09T22:05:26.241Z,3.65
2022-09-09T22:08:29.285Z,3.35
2022-09-09T22:11:30.649Z,3.20
2022-09-09T22:14:31.993Z,3.88
2022-09-09T22:17:34.879Z,3.90
2022-09-09T22:20:41.817Z,3.08
2022-09-09T22:23:43.175Z,4.88
2022-09-09T22:26:44.533Z,2.75
2022-09-09T22:29:45.866Z,3.00
2022-09-09T22:32:47.210Z,2.55
2022-09-09T22:35:48.551Z,3.13
2022-09-09T22:38:50.399Z,2.28
2022-09-09T22:41:51.777Z,5.07
2022-09-09T22:44:53.122Z,2.70
2022-09-09T22:47:54.477Z,3.33
2022-09-09T22:51:04.375Z,2.13
2022-09-09T22:54:05.850Z,2.42
2022-09-09T22:57:07.235Z,3.55
2022-09-09T23:00:09.261Z,4.32
2022-09-09T23:03:10.614Z,2.90
2022-09-09T23:06:13.712Z,2.10
2022-09-09T23:12:16.339Z,3.38
2022-09-09T23:15:17.692Z,1.70
2022-09-09T23:18:19.019Z,2.10
2022-09-09T23:21:21.827Z,2.70
2022-09-09T23:24:23.139Z,4.90
2022-09-09T23:27:24.528Z,2.40
2022-09-09T23:30:25.864Z,3.10
2022-09-09T23:33:27.511Z,2.38
2022-09-09T23:36:29.685Z,2.10
2022-09-09T23:39:31.102Z,3.03
2022-09-09T23:42:32.433Z,3.45
2022-09-09T23:45:33.800Z,2.25
2022-09-09T23:48:36.553Z,3.67
2022-09-09T23:51:38.313Z,3.47
2022-09-09T23:54:39.684Z,3.42
2022-09-09T23:57:41.041Z,2.45
